Aspen-Pitkin Co,Sardy Field Aspen US
ICAO: KASE
IATA: ASE
Category: Medium
Scheduled Services: Yes

Elevation: 7820 ft
TransAlt. 18000 ft.

Airport Communications:
ATIS:120.4
CLNC DEL:123.75
APP/DEP:123.8
CTAF:118.85
GND:121.9
TWR:118.85
UNICOM:122.95

KASE Zoom In..

If you have problems with the map follow the link
https://www.worldairports.se/pages/airport.php?
ICAO=KASE

Runways:

(A) RW 15 length 8006 ft width 100 ft
LOC 111.15 / hdg 151

(B) RW 33 length 8006 ft width 100 ft
LOC 111.15 / hdg 331

Location; KASE
Day. 25 / Time. 06.53 Zulu
* Altimeter: 30.07
* Temperature: -03° c. -26.6°f.
* Wind from: 000° Speed 00 kn.
Dewpoint: -06° c.
Visibility: 9 Statute Miles.
Clouds: Broken 2600 ft.
Clouds: Overcast 5000 ft.

KASE 250653Z AUTO 00000KT 9SM BKN026 OVC050 M03/M06 A3007 RMK AO2 SNB28E52 SLP161 P0000 T10281056 400441072


Wind - Calm.

 
 
jpsmedia worldairports.se 2020   terms of use